Relevés horaires St-Hubert (Belgique)


Relevés horaires à St-Hubert - Mardi 03 Juill. 2018
Heure UTC1 Température [°C] Vent [km/h] Hum. [%] Pres.4 [hPa] Visi. [Km] Nébu. [octa] Préc.5 [mm] Cond.
2m. Res. Ros. Dir.2 Vit. Moy. Raf.3
23:00 19.5 19.5 9.2 SE 3.7 5.6 7.4 51 1015.5(0.3/3h) 45 0/8 -- --
22:00 19.3 19.3 8.4 ESE 5.6 5.6 7.4 49 1015.6(0.3/3h) 50 0/8 -- --
21:00 17.9 17.9 9.3 SO 1.9 5.6 7.4 57 1015.9(-0.1/3h) 40 0/8 -- --
20:00 19.4 19.4 9.1 E 5.6 5.6 7.4 51 1015.3(0.0/3h) 50 0/8 -- --
19:00 20.4 20.4 9.6 E 5.6 5.6 5.6 50 1015(-0.4/3h) 45 0/8 -- --
18:00 22.2 22.2 10.3 ESE 5.6 9.3 11.1 47 1014.8(-0.5/3h) 45 0/8 0/12h
--
17:00 23.8 23.8 9.8 ESE 7.4 9.3 11.1 41 1014.4(-0.7/3h) 35 0/8 -- --
16:00 24.6 24.6 9.0 ESE 7.4 7.4 11.1 37 1014.5(-0.7/3h) 35 0/8 -- --
15:00 25.1 25.1 9.6 SE 3.7 5.6 9.3 38 1014.8(-0.6/3h) 30 0/8 -- --
14:00 24.0 24.0 8.2 NNO 3.7 5.6 9.3 36 1015.1(-0.6/3h) 40 0/8 -- --
13:00 24.1 24.1 7.5 NNO 1.9 3.7 9.3 35 1015.4(-0.3/3h) 40 0/8 -- --
12:00 23.6 23.6 6.3 NNO 3.7 7.4 11.1 33 1015.8(0.1/3h) 35 5/8 0/6h
--
11:00 22.3 22.3 7.7 S 3.7 3.7 7.4 39 1016.1(0.6/3h) 35 0/8 -- --
10:00 21.9 21.9 7.0 S 3.7 5.6 9.3 38 1016.2(0.5/3h) 45 0/8 -- --
09:00 22.6 22.6 5.4 SE 5.6 7.4 11.1 33 1015.9(0.7/3h) 40 0/8 -- --
08:00 22.0 22.0 6.8 SE 5.6 7.4 11.1 37 1015.5(0.3/3h) 40 0/8 -- --
07:00 20.8 20.8 5.8 SE 5.6 7.4 9.3 38 1015.9(0.9/3h) 30 0/8 -- --
06:00 18.1 18.1 4.5 ESE 7.4 9.3 14.8 41 1016.2(0.7/3h) 40 0/8 0/12h
--
05:00 16.9 16.9 5.4 ESE 7.4 9.3 11.1 47 1016.3(0.4/3h) 45 0/8 -- --
04:00 17.3 17.3 4.1 ESE 9.3 9.3 14.8 41 1015.7(-0.2/3h) 45 0/8 -- --
03:00 15.1 14.8 4.7 ESE 9.3 9.3 13.0 50 1016.1(-0.4/3h) 45 0/8 -- --
02:00 17.2 17.2 5.2 E 9.3 9.3 13.0 45 1015.9(-0.3/3h) 50 0/8 -- --
01:00 16.5 16.5 5.3 ESE 7.4 7.4 11.1 47 1016.1(0.1/3h) 45 0/8 -- --
00:00 16.3 16.3 5.4 E 7.4 7.4 11.1 48 1016.3(0.4/3h) 45 0/8 0/6h
0/24h
--

1 Coordinated Universal Time. Actuellement il est 13:00 locale et 11:00 UTC.

2 Le vent souffle depuis la direction indiquée vers la direction oposée.

3 Les rafales max. sont disponible 40 min après l'heure du relevé.

4 Pour les stations d'altitude (plus de 600m) le géopotentiel du niveau le plus proche de la pression obligatoire est indiqué.

5 Les stations disposant d'un diffuseur peuvent indiquer "trace". Cela signifie que des précipitations ont touchés le sol mais que la quantité est inférieure à 0.1 mm.

Récapitulatif de la journée
Température [°C] Vent [km/h] Ensoleillement4 [h] Precipitations totale5 [mm] Pression [Hpa]
Min1 Max.2 Moy.3 Max. Min Max.
13.7 25.2 7 14.8 0 h 0 min 0 1014.4 1016.3

1 Température minimale relevée entre 18:00 UTC la veille et 18:00 UTC le jour donné.

2 Température maximale relevée entre 06:00 UTC le jour donné et 06:00 UTC le lendemain.

3 Vent moyen de la journée basé sur les relevés horaires.

4 Ensoleillement en heures relevé entre 06:00 UTC la veille et 06:00 UTC le jour donné.

5 Précipitations totales tombées entre 06:00 UTC la jour donné et 06:00 UTC le lendemain.

Graphiques horaires